Viña del mar Airport
SCVM : now visible

Airfield :











YOU CAN JOIN US ON...

 
LOGIN :

Register | Disclaimer

   EN    FR    IT 

 









Legend :    VFR   Marginal VFR   IFR   Intensive IFR   Very Intensive IFR
Visi :
Ceiling :
>= 8 km
>= 3000ft
5 to 8 km
1000 to 3000 ft
1500m to 5 km
500 to 1000 ft
800 to 1500m
200 to 500 ft
< 800m
< 200 ft
Symbols :   Thunderstorms  Fog  Heavy snow  Heavy precipitations  Wind > 20 kt






- Airport Elevation : 461 ft
- IATA code : KNA


SCVM - Viña del mar

CURRENT METAR :
  • 041000Z 28003KT 0900 FG OVC010 10/09 Q1009

EXPIRED METARs :
  • 040900Z 00000KT 6000 SCT012 10/09 Q1009
  • 040800Z 00000KT CAVOK 10/09 Q1009

TAF TAF SCVM
Valid from the 04 at 00:00 until the 05 at 00:00 UTC


032220Z 0400/0424 28008KT CAVOK TX20/0418Z TN12/0411Z
BECMG 0401/0402 18004KT
BECMG 0406/0408 6000 BKN010
TEMPO 0409/0413 00000KT 2000 BR OVC004
BECMG 0413/0415 29008KT BKN020
BECMG 0416/0418 31010KT CAVOK



MET'MAP, your aeronautical weather chart ! - Copyright ORBIFLY December 2007 - Disclaimer

ORBIFLY MET'MAP TEAM :

Programming & Development : Alexandra Zaïnal
Concept & original design : Baudouin d'Aumeries
Assistance for programming : Marc-Olivier Méhu
Technical & hardware support : Manuel Goepfert

Contact : metmap@orbifly.com




SOURCES & CREDITS :

   NOAA       Earth
Advisory